Time;durP1;ratioP1;P1;durP2;ratioP2;P2;SDS_P1;SDS_P2;PMS_P1;PMS_P2;Temp;Humidity;BMP_temperature;BMP_pressure;BME280_temperature;BME280_humidity;BME280_pressure;Samples;Min_cycle;Max_cycle;Signal;HPM_P1;HPM_P2
2022/06/18 00:00:01;;;;;;;7.50;5.15;;;;;;;13.40;100.00;93782.72;2099289;28;20409;-81
2022/06/18 00:01:02;;;;;;;5.45;4.95;;;;;;;13.47;100.00;93784.50;2109195;28;20028;-81
2022/06/18 00:02:12;;;;;;;7.97;5.32;;;;;;;13.43;100.00;93781.88;2116507;27;20115;-82
2022/06/18 00:03:14;;;;;;;6.47;4.88;;;;;;;13.46;100.00;93775.69;2106364;28;20496;-82
2022/06/18 00:04:22;;;;;;;5.63;4.55;;;;;;;13.43;100.00;93778.44;2098200;28;20066;-83
2022/06/18 00:05:25;;;;;;;8.23;5.25;;;;;;;13.41;100.00;93776.19;2092006;28;20116;-82
2022/06/18 00:06:27;;;;;;;9.57;5.53;;;;;;;13.38;100.00;93781.63;2098664;28;20017;-81
2022/06/18 00:07:28;;;;;;;9.93;5.68;;;;;;;13.41;100.00;93784.25;2098198;28;20508;-82
2022/06/18 00:08:30;;;;;;;8.98;5.38;;;;;;;13.40;100.00;93781.97;2100499;28;20020;-83
2022/06/18 00:09:42;;;;;;;12.20;6.20;;;;;;;13.38;100.00;93781.63;2106490;28;20519;-82
2022/06/18 00:10:44;;;;;;;12.00;7.00;;;;;;;13.36;100.00;93787.44;2101150;28;20024;-84
2022/06/18 00:14:33;;;;;;;9.05;6.53;;;;;;;13.34;100.00;93777.13;2115884;27;20507;-80
2022/06/18 00:15:37;;;;;;;13.35;6.47;;;;;;;13.38;100.00;93784.31;2106378;28;20527;-83
2022/06/18 00:16:38;;;;;;;8.82;5.80;;;;;;;13.42;100.00;93779.63;2106825;28;20039;-80
2022/06/18 00:17:40;;;;;;;9.75;5.80;;;;;;;13.37;100.00;93780.13;2101546;28;20020;-83
2022/06/18 00:18:41;;;;;;;7.35;5.70;;;;;;;13.35;100.00;93791.28;2090367;28;20689;-82
2022/06/18 00:19:43;;;;;;;8.63;5.70;;;;;;;13.40;100.00;93782.72;2098343;28;20027;-83
2022/06/18 00:20:44;;;;;;;9.63;6.57;;;;;;;13.31;100.00;93786.00;2098374;28;20047;-83
2022/06/18 00:21:45;;;;;;;7.97;5.43;;;;;;;13.31;100.00;93780.63;2103780;28;20034;-81
2022/06/18 00:22:49;;;;;;;6.70;5.35;;;;;;;13.25;100.00;93781.50;2090022;28;20028;-81
2022/06/18 00:23:51;;;;;;;6.03;5.20;;;;;;;13.20;100.00;93784.66;2115573;27;20499;-84
2022/06/18 00:24:53;;;;;;;6.55;5.15;;;;;;;13.20;100.00;93779.28;2114691;28;20027;-80
2022/06/18 00:25:54;;;;;;;7.75;5.40;;;;;;;13.16;100.00;93779.38;2098212;28;20027;-82
2022/06/18 00:26:56;;;;;;;7.18;5.70;;;;;;;13.24;100.00;93782.69;2093835;28;20028;-83
2022/06/18 00:27:59;;;;;;;5.60;5.00;;;;;;;13.25;100.00;93784.19;2098332;28;20053;-83
2022/06/18 00:29:07;;;;;;;5.50;5.00;;;;;;;13.20;100.00;93784.66;2108279;28;20020;-83
2022/06/18 00:30:15;;;;;;;6.93;5.28;;;;;;;13.17;100.00;93778.22;2104614;28;20111;-82
2022/06/18 00:31:16;;;;;;;7.15;5.25;;;;;;;13.16;100.00;93776.69;2099803;28;20029;-83
2022/06/18 00:32:17;;;;;;;8.77;5.70;;;;;;;13.13;100.00;93782.16;2106329;28;20031;-81
2022/06/18 00:33:20;;;;;;;7.50;5.25;;;;;;;13.13;100.00;93780.22;2122438;27;20085;-81
2022/06/18 00:34:21;;;;;;;6.25;4.93;;;;;;;13.11;100.00;93777.94;2106316;28;20020;-82
2022/06/18 00:35:23;;;;;;;8.10;6.03;;;;;;;13.08;100.00;93778.00;2089810;28;20048;-82
2022/06/18 00:36:25;;;;;;;10.50;6.10;;;;;;;13.10;100.00;93773.75;2093083;27;20539;-83
2022/06/18 00:37:26;;;;;;;5.75;5.13;;;;;;;13.09;100.00;93776.84;2108663;28;20121;-83
2022/06/18 00:38:30;;;;;;;5.63;5.03;;;;;;;13.13;100.00;93776.78;2097727;28;20038;-82
2022/06/18 00:39:32;;;;;;;10.30;5.40;;;;;;;13.10;100.00;93770.28;2098639;28;20833;-81
2022/06/18 00:40:40;;;;;;;9.65;5.68;;;;;;;13.03;100.00;93773.88;2098020;28;20033;-82
2022/06/18 00:41:44;;;;;;;5.72;4.93;;;;;;;13.01;100.00;93772.78;2098806;28;20021;-82
2022/06/18 00:42:46;;;;;;;6.43;5.60;;;;;;;12.96;100.00;93768.66;2107163;27;20027;-81
2022/06/18 00:43:55;;;;;;;6.07;4.78;;;;;;;12.96;100.00;93773.28;2106242;28;20048;-82
2022/06/18 00:45:00;;;;;;;6.50;5.28;;;;;;;12.87;100.00;93778.44;2100376;28;20060;-83
2022/06/18 00:46:10;;;;;;;7.97;5.30;;;;;;;12.88;100.00;93769.97;2106759;28;20539;-84
2022/06/18 00:47:23;;;;;;;;;;;;;;;12.91;100.00;93773.78;2109423;27;20496;-80
2022/06/18 00:48:38;;;;;;;6.53;5.40;;;;;;;12.95;100.00;93767.16;2103474;28;19908;-83
2022/06/18 00:49:54;;;;;;;6.43;4.80;;;;;;;12.99;100.00;93775.13;2101560;28;20031;-83
2022/06/18 00:51:03;;;;;;;10.15;5.50;;;;;;;12.97;100.00;93772.84;2096144;28;20028;-82
2022/06/18 00:52:26;;;;;;;6.97;5.90;;;;;;;12.92;100.00;93776.03;2091657;28;20496;-81
2022/06/18 00:53:44;;;;;;;7.03;5.32;;;;;;;12.89;100.00;93776.84;2108569;28;20031;-83
2022/06/18 00:54:52;;;;;;;6.10;5.43;;;;;;;12.89;100.00;93774.16;2104598;28;20032;-83
2022/06/18 00:56:00;;;;;;;7.18;5.50;;;;;;;12.91;100.00;93779.88;2099631;28;20017;-81
2022/06/18 00:57:14;;;;;;;6.45;5.72;;;;;;;12.96;100.00;93778.66;2108378;27;20020;-81
2022/06/18 00:58:28;;;;;;;6.07;5.28;;;;;;;12.88;100.00;93777.28;2122948;27;20518;-82
2022/06/18 00:59:39;;;;;;;8.35;5.68;;;;;;;12.84;100.00;93782.69;2116433;27;20107;-82
2022/06/18 01:00:44;;;;;;;;;;;;;;;12.86;100.00;93774.97;2116368;27;20030;-83
2022/06/18 01:01:48;;;;;;;7.78;5.05;;;;;;;12.85;100.00;93776.16;2114571;28;19907;-80
2022/06/18 01:02:50;;;;;;;6.47;5.00;;;;;;;12.85;100.00;93774.22;2115583;27;20023;-82
2022/06/18 01:03:51;;;;;;;6.07;4.90;;;;;;;12.85;100.00;93774.22;2117435;27;20019;-84
2022/06/18 01:04:53;;;;;;;6.50;5.50;;;;;;;12.83;100.00;93768.53;2089368;28;20112;-82
2022/06/18 01:05:56;;;;;;;8.18;5.68;;;;;;;12.77;100.00;93775.53;2097763;28;20115;-80
2022/06/18 01:07:37;;;;;;;5.65;4.90;;;;;;;12.80;100.00;93776.66;2089572;28;20024;-83
2022/06/18 01:08:42;;;;;;;6.88;4.70;;;;;;;12.85;100.00;93768.13;2069625;28;20040;-81
2022/06/18 01:09:47;;;;;;;6.05;5.13;;;;;;;12.81;100.00;93767.41;2065429;28;20029;-82
2022/06/18 01:10:59;;;;;;;6.78;5.20;;;;;;;12.79;100.00;93773.22;2073564;28;20030;-83
2022/06/18 01:12:01;;;;;;;10.05;6.07;;;;;;;12.70;100.00;93770.31;2083675;28;20032;-83
2022/06/18 01:13:08;;;;;;;6.00;5.40;;;;;;;12.72;100.00;93775.28;2097263;28;20104;-80
2022/06/18 01:14:14;;;;;;;6.03;5.43;;;;;;;12.78;100.00;93765.59;2092812;28;20040;-81
2022/06/18 01:15:20;;;;;;;7.13;5.40;;;;;;;12.83;100.00;93767.78;2095008;28;20158;-81
2022/06/18 01:16:21;;;;;;;7.22;5.65;;;;;;;12.81;100.00;93770.09;2107475;27;20055;-82
2022/06/18 01:17:23;;;;;;;6.72;5.00;;;;;;;12.70;100.00;93766.88;2100460;28;20020;-81
2022/06/18 01:18:27;;;;;;;7.05;5.55;;;;;;;12.64;100.00;93763.16;2103551;27;20027;-82
2022/06/18 01:19:38;;;;;;;7.95;5.10;;;;;;;12.60;100.00;93771.28;2106341;28;20031;-83
2022/06/18 01:20:53;;;;;;;5.68;5.15;;;;;;;12.72;100.00;93762.59;2107169;28;20362;-81
2022/06/18 01:22:32;;;;;;;9.30;5.97;;;;;;;12.68;100.00;93764.59;2097420;28;20059;-82
2022/06/18 01:24:02;;;;;;;5.53;4.93;;;;;;;12.68;100.00;93764.59;2107706;28;20090;-84
2022/06/18 01:25:06;;;;;;;6.25;4.97;;;;;;;12.76;100.00;93759.88;2063841;28;20510;-82
2022/06/18 01:26:10;;;;;;;7.95;5.63;;;;;;;12.76;100.00;93763.31;2100690;27;20080;-81
2022/06/18 01:27:12;;;;;;;7.07;5.40;;;;;;;12.76;100.00;93757.94;2106114;28;20024;-82
2022/06/18 01:28:16;;;;;;;8.30;5.53;;;;;;;12.70;100.00;93759.59;2097707;28;20020;-80
2022/06/18 01:29:18;;;;;;;7.85;5.82;;;;;;;12.69;100.00;93755.41;2097710;28;20029;-81
2022/06/18 01:30:21;;;;;;;6.57;5.40;;;;;;;12.73;100.00;93758.00;2100301;27;20396;-82
2022/06/18 01:31:22;;;;;;;5.72;5.13;;;;;;;12.71;100.00;93755.75;2103912;28;20030;-81
2022/06/18 01:32:24;;;;;;;6.07;5.47;;;;;;;12.72;100.00;93757.25;2106368;28;20024;-84
2022/06/18 01:33:25;;;;;;;6.68;5.60;;;;;;;12.77;100.00;93754.06;2092585;28;20017;-83
2022/06/18 01:34:26;;;;;;;8.15;5.15;;;;;;;12.72;100.00;93757.25;2097132;28;20027;-83
2022/06/18 01:35:29;;;;;;;7.60;5.45;;;;;;;12.63;100.00;93753.59;2105745;28;20020;-81
2022/06/18 01:36:34;;;;;;;7.38;4.97;;;;;;;12.64;100.00;93750.50;2114580;27;20023;-82
2022/06/18 01:37:35;;;;;;;5.25;4.75;;;;;;;12.61;100.00;93751.34;2122786;27;20046;-82
2022/06/18 01:38:40;;;;;;;6.18;4.75;;;;;;;12.56;100.00;93752.59;2122575;27;20110;-80
2022/06/18 01:39:46;;;;;;;5.45;4.78;;;;;;;12.57;100.00;93756.03;2114335;28;20110;-82
2022/06/18 01:42:41;;;;;;;5.22;4.72;;;;;;;12.57;100.00;93756.78;2105959;28;20553;-81
2022/06/18 01:43:43;;;;;;;6.00;5.15;;;;;;;12.58;100.00;93746.81;2105370;28;20051;-81
2022/06/18 01:45:13;;;;;;;5.85;5.00;;;;;;;12.62;100.00;93746.75;2089210;28;20025;-81
2022/06/18 01:46:14;;;;;;;5.70;4.68;;;;;;;12.55;100.00;93747.63;2110919;27;20047;-82
2022/06/18 01:47:21;;;;;;;6.20;4.78;;;;;;;12.58;100.00;93744.88;2097387;28;20516;-82
2022/06/18 01:48:34;;;;;;;6.38;5.20;;;;;;;12.52;100.00;93748.47;2090765;28;20028;-82
2022/06/18 01:49:41;;;;;;;6.13;4.63;;;;;;;12.57;100.00;93751.41;2100580;28;20825;-80
2022/06/18 01:51:05;;;;;;;6.25;4.80;;;;;;;12.56;100.00;93747.22;2106403;28;20526;-80
2022/06/18 01:52:09;;;;;;;7.68;4.93;;;;;;;12.58;100.00;93752.91;2112988;27;20160;-83
2022/06/18 01:53:23;;;;;;;6.03;4.50;;;;;;;12.56;100.00;93746.47;2097269;28;20020;-82
2022/06/18 01:54:35;;;;;;;5.63;4.75;;;;;;;12.57;100.00;93743.38;2092750;28;20044;-82
2022/06/18 01:55:43;;;;;;;5.57;5.03;;;;;;;12.53;100.00;93744.59;2105606;28;20015;-83
2022/06/18 01:56:50;;;;;;;5.93;4.82;;;;;;;12.51;100.00;93744.25;2097116;28;20017;-82
2022/06/18 01:57:57;;;;;;;5.68;5.00;;;;;;;12.48;100.00;93745.09;2098275;28;20449;-81
2022/06/18 01:59:04;;;;;;;4.90;4.47;;;;;;;12.47;100.00;93732.84;2105499;28;20028;-82
2022/06/18 02:00:13;;;;;;;5.60;4.70;;;;;;;12.43;100.00;93738.28;2089943;28;20466;-80
2022/06/18 02:01:27;;;;;;;7.18;5.15;;;;;;;12.45;100.00;93741.28;2082905;28;20027;-82
2022/06/18 02:02:30;;;;;;;5.57;5.00;;;;;;;12.38;100.00;93740.66;2092398;28;20028;-82
2022/06/18 02:03:31;;;;;;;5.82;4.85;;;;;;;12.39;100.00;93739.50;2097665;28;20553;-80
2022/06/18 02:04:34;;;;;;;8.73;4.80;;;;;;;12.42;100.00;93736.75;2097071;28;20489;-84
2022/06/18 02:05:37;;;;;;;5.63;5.13;;;;;;;12.37;100.00;93734.53;2097547;28;20028;-84
2022/06/18 02:06:39;;;;;;;5.82;4.97;;;;;;;12.32;100.00;93729.66;2089324;28;20055;-82
2022/06/18 02:07:43;;;;;;;7.05;5.20;;;;;;;12.30;100.00;93729.34;2100866;28;20405;-81
2022/06/18 02:08:44;;;;;;;10.00;4.80;;;;;;;12.28;100.00;93728.97;2089523;28;20822;-81
2022/06/18 02:10:00;;;;;;;7.28;5.53;;;;;;;12.29;100.00;93725.13;2106131;27;20018;-83
2022/06/18 02:11:05;;;;;;;5.65;4.75;;;;;;;12.28;100.00;93729.72;2120340;28;20031;-81
2022/06/18 02:14:01;;;;;;;8.52;5.38;;;;;;;12.36;100.00;93719.63;2140960;27;20201;-86
2022/06/18 02:15:11;;;;;;;5.20;4.70;;;;;;;12.30;100.00;93723.97;2121623;28;20035;-85
2022/06/18 02:16:17;;;;;;;5.55;4.95;;;;;;;12.33;100.00;93726.56;2107521;28;20097;-87
2022/06/18 02:17:20;;;;;;;6.28;5.68;;;;;;;12.25;100.00;93722.53;2105426;28;20028;-86
2022/06/18 02:18:21;;;;;;;5.60;5.10;;;;;;;12.25;100.00;93719.09;2105178;28;20031;-88
2022/06/18 02:19:22;;;;;;;7.32;5.75;;;;;;;12.21;100.00;93719.16;2101700;28;20027;-86
2022/06/18 02:20:26;;;;;;;6.13;5.32;;;;;;;12.19;100.00;93723.41;2113412;27;20061;-84
2022/06/18 02:21:27;;;;;;;7.53;5.68;;;;;;;12.27;100.00;93711.38;2121997;27;20031;-88
2022/06/18 02:22:33;;;;;;;6.22;4.90;;;;;;;12.23;100.00;93716.06;2119701;27;20023;-84
2022/06/18 02:23:36;;;;;;;6.82;5.13;;;;;;;12.24;100.00;93712.94;2122321;27;20756;-87
2022/06/18 02:24:37;;;;;;;6.07;5.22;;;;;;;12.10;100.00;93713.97;2113223;28;20753;-87
2022/06/18 02:25:38;;;;;;;10.00;5.43;;;;;;;12.18;100.00;93719.97;2104694;28;20404;-86
2022/06/18 02:26:41;;;;;;;5.50;5.07;;;;;;;12.07;100.00;93709.44;2104885;28;20024;-86
2022/06/18 02:27:42;;;;;;;7.10;5.40;;;;;;;12.10;100.00;93707.84;2113216;28;20443;-87
2022/06/18 02:28:44;;;;;;;8.73;5.55;;;;;;;12.14;100.00;93707.78;2113100;28;20541;-85
2022/06/18 02:29:46;;;;;;;7.57;5.47;;;;;;;12.17;100.00;93707.75;2105478;28;20046;-88
2022/06/18 02:30:48;;;;;;;9.45;5.97;;;;;;;12.14;100.00;93707.78;2104957;28;20025;-86
2022/06/18 02:31:50;;;;;;;8.48;5.60;;;;;;;12.15;100.00;93702.00;2121434;28;20022;-86
2022/06/18 02:33:22;;;;;;;8.00;5.65;;;;;;;12.11;100.00;93698.63;2129918;27;20043;-85
2022/06/18 02:34:28;;;;;;;6.60;5.53;;;;;;;12.07;100.00;93703.31;2114275;28;20049;-85
2022/06/18 02:35:34;;;;;;;8.07;5.43;;;;;;;12.06;100.00;93702.56;2113659;28;20107;-86
2022/06/18 02:36:40;;;;;;;8.88;5.47;;;;;;;12.05;100.00;93701.03;2108462;28;20020;-85
2022/06/18 02:37:44;;;;;;;6.13;5.30;;;;;;;12.00;100.00;93698.09;2122342;27;20015;-90
2022/06/18 02:38:46;;;;;;;6.95;5.53;;;;;;;11.98;100.00;93695.06;2130044;27;20356;-84
2022/06/18 02:40:00;;;;;;;8.18;5.53;;;;;;;12.04;100.00;93702.22;2113133;28;20027;-88
2022/06/18 02:41:01;;;;;;;6.82;6.07;;;;;;;12.07;100.00;93693.38;2114905;28;20496;-90
2022/06/18 02:42:11;;;;;;;6.80;5.57;;;;;;;12.07;100.00;93701.41;2113177;28;20028;-86
2022/06/18 02:43:13;;;;;;;6.30;5.60;;;;;;;12.06;100.00;93702.56;2115271;27;20069;-89
2022/06/18 02:44:16;;;;;;;7.22;5.90;;;;;;;12.12;100.00;93697.50;2108858;28;20028;-90
2022/06/18 02:45:18;;;;;;;6.63;5.88;;;;;;;12.02;100.00;93701.09;2105035;28;20024;-87
2022/06/18 02:46:19;;;;;;;6.82;5.18;;;;;;;11.98;100.00;93695.81;2113269;27;20031;-87
2022/06/18 02:47:21;;;;;;;8.05;5.60;;;;;;;11.93;100.00;93693.59;2112996;28;20088;-85
2022/06/18 02:48:28;;;;;;;7.82;5.65;;;;;;;11.97;100.00;93696.97;2113172;28;20034;-89
2022/06/18 02:49:29;;;;;;;7.03;5.82;;;;;;;11.99;100.00;93696.59;2121463;28;20046;-87
2022/06/18 02:50:35;;;;;;;7.95;5.95;;;;;;;11.97;100.00;93694.31;2121348;28;20026;-87
2022/06/18 02:51:38;;;;;;;7.78;5.50;;;;;;;11.88;100.00;93690.66;2114088;27;20050;-85
2022/06/18 02:52:48;;;;;;;6.95;5.25;;;;;;;11.91;100.00;93695.94;2113358;28;20020;-88
2022/06/18 02:53:49;;;;;;;7.65;5.70;;;;;;;11.90;100.00;93688.34;2115785;27;20484;-86
2022/06/18 02:54:55;;;;;;;6.55;5.57;;;;;;;11.84;100.00;93696.06;2113102;28;20027;-88
2022/06/18 02:56:01;;;;;;;6.53;5.75;;;;;;;11.85;100.00;93702.91;2105220;28;20020;-87
2022/06/18 02:57:08;;;;;;;7.97;5.45;;;;;;;11.89;100.00;93698.25;2108344;27;20024;-86
2022/06/18 02:58:27;;;;;;;6.82;5.72;;;;;;;11.90;100.00;93699.03;2113550;28;20034;-88
2022/06/18 02:59:30;;;;;;;5.95;5.38;;;;;;;11.84;100.00;93694.13;2109826;28;20075;-86
2022/06/18 03:00:36;;;;;;;6.05;5.45;;;;;;;11.85;100.00;93697.56;2104809;28;20642;-84
2022/06/18 03:01:37;;;;;;;11.57;6.25;;;;;;;11.84;100.00;93686.09;2113619;28;20381;-83
2022/06/18 03:02:38;;;;;;;6.00;5.43;;;;;;;11.83;100.00;93694.56;2112977;27;20031;-87
2022/06/18 03:03:42;;;;;;;6.60;5.85;;;;;;;11.88;100.00;93698.69;2121304;27;20781;-89
2022/06/18 03:04:47;;;;;;;5.82;5.15;;;;;;;11.85;100.00;93697.56;2121390;28;20043;-86
2022/06/18 03:05:52;;;;;;;9.38;5.80;;;;;;;11.81;100.00;93689.59;2113715;27;20090;-85
2022/06/18 03:06:54;;;;;;;7.40;5.55;;;;;;;11.86;100.00;93693.75;2120593;28;20016;-90
2022/06/18 03:07:55;;;;;;;11.13;5.88;;;;;;;11.86;100.00;93698.34;2104473;28;20023;-84
2022/06/18 03:08:57;;;;;;;6.70;5.18;;;;;;;11.81;100.00;93694.94;2113009;27;20024;-85
2022/06/18 03:12:40;;;;;;;8.43;6.10;;;;;;;11.87;100.00;93689.13;2115513;28;20034;-89
2022/06/18 03:13:42;;;;;;;6.25;5.53;;;;;;;11.89;100.00;93697.50;2103803;28;20044;-84
2022/06/18 03:14:42;;;;;;;6.55;5.90;;;;;;;11.80;100.00;93698.00;2087993;28;20071;-87
2022/06/18 03:15:45;;;;;;;6.50;5.90;;;;;;;11.80;100.00;93689.97;2096117;28;20028;-85
2022/06/18 03:16:47;;;;;;;8.05;6.00;;;;;;;11.79;100.00;93693.81;2096241;28;20033;-85
2022/06/18 03:17:49;;;;;;;6.57;5.78;;;;;;;11.72;100.00;93697.41;2096306;28;20028;-86
2022/06/18 03:18:54;;;;;;;5.97;5.47;;;;;;;11.71;100.00;93690.50;2104467;28;20504;-85
2022/06/18 03:20:01;;;;;;;10.13;5.97;;;;;;;11.73;100.00;93690.88;2106014;28;20381;-86
2022/06/18 03:21:15;;;;;;;8.80;5.68;;;;;;;11.73;100.00;93690.13;2113495;28;20164;-87
2022/06/18 03:22:19;;;;;;;9.32;5.70;;;;;;;11.67;100.00;93691.72;2112671;28;20035;-86
2022/06/18 03:23:23;;;;;;;7.75;5.85;;;;;;;11.61;100.00;93696.81;2112923;28;20066;-85
2022/06/18 03:24:24;;;;;;;7.85;5.85;;;;;;;11.64;100.00;93684.53;2112105;28;20015;-87
2022/06/18 03:25:25;;;;;;;5.47;4.97;;;;;;;11.59;100.00;93691.09;2106602;28;20598;-85
2022/06/18 03:26:27;;;;;;;8.85;6.00;;;;;;;11.64;100.00;93687.22;2098259;28;20024;-90
2022/06/18 03:27:28;;;;;;;6.35;5.75;;;;;;;11.58;100.00;93690.31;2098125;28;20031;-87
2022/06/18 03:28:31;;;;;;;7.38;5.55;;;;;;;11.57;100.00;93694.19;2096245;28;20044;-87
2022/06/18 03:29:32;;;;;;;10.85;5.53;;;;;;;11.64;100.00;93692.56;2090272;28;20035;-86
2022/06/18 03:30:34;;;;;;;6.72;5.63;;;;;;;11.64;100.00;93696.00;2090156;28;20021;-84
2022/06/18 03:31:36;;;;;;;7.22;5.47;;;;;;;11.53;100.00;93690.81;2093180;28;20119;-88
2022/06/18 03:32:37;;;;;;;8.38;5.45;;;;;;;11.60;100.00;93688.03;2098942;28;20137;-87
2022/06/18 03:33:39;;;;;;;7.70;6.15;;;;;;;11.63;100.00;93691.78;2090485;28;20055;-86
2022/06/18 03:34:40;;;;;;;6.95;5.75;;;;;;;11.62;100.00;93692.94;2090428;28;20547;-86
2022/06/18 03:35:44;;;;;;;7.38;5.72;;;;;;;11.62;100.00;93689.53;2082011;28;20408;-84
2022/06/18 03:36:45;;;;;;;7.80;5.57;;;;;;;11.67;100.00;93692.47;2082868;28;20025;-90
2022/06/18 03:37:47;;;;;;;6.93;6.25;;;;;;;11.65;100.00;93684.13;2090370;28;20711;-86
2022/06/18 03:38:50;;;;;;;6.53;5.40;;;;;;;11.64;100.00;93687.97;2106771;28;20500;-84
2022/06/18 03:39:51;;;;;;;7.15;5.30;;;;;;;11.59;100.00;93691.88;2090533;28;20021;-85
2022/06/18 03:40:52;;;;;;;10.40;6.93;;;;;;;11.66;100.00;93690.22;2090121;28;20131;-86
2022/06/18 03:41:53;;;;;;;6.30;5.25;;;;;;;11.55;100.00;93693.09;2082203;28;20025;-83
2022/06/18 03:42:54;;;;;;;6.15;5.55;;;;;;;11.55;100.00;93693.84;2090449;28;20024;-85
2022/06/18 03:43:56;;;;;;;11.90;6.05;;;;;;;11.54;100.00;93696.91;2107110;28;20099;-89
2022/06/18 03:44:57;;;;;;;7.47;5.68;;;;;;;11.53;100.00;93687.38;2106884;28;20115;-87
2022/06/18 03:46:21;;;;;;;6.80;5.10;;;;;;;11.47;100.00;93705.06;2096313;28;20023;-86
2022/06/18 03:47:23;;;;;;;8.68;6.00;;;;;;;11.48;100.00;93701.22;2110087;28;20423;-87
2022/06/18 03:49:02;;;;;;;7.30;6.20;;;;;;;11.52;100.00;93694.66;2098428;28;20142;-87
2022/06/18 03:50:04;;;;;;;6.63;5.60;;;;;;;11.58;100.00;93702.97;2067361;28;20435;-88
2022/06/18 03:51:05;;;;;;;6.38;5.68;;;;;;;11.65;100.00;93704.78;2073342;28;20037;-85
2022/06/18 03:52:08;;;;;;;7.35;5.72;;;;;;;11.67;100.00;93710.47;2076254;28;20057;-87
2022/06/18 03:53:10;;;;;;;8.82;5.32;;;;;;;11.74;100.00;93710.38;2090368;28;20021;-87
2022/06/18 03:54:11;;;;;;;8.90;5.35;;;;;;;11.75;100.00;93719.91;2090305;28;20052;-86
2022/06/18 03:55:13;;;;;;;7.90;5.63;;;;;;;11.71;100.00;93716.53;2102207;28;20119;-88
2022/06/18 03:56:17;;;;;;;10.52;6.03;;;;;;;11.81;100.00;93716.38;2090793;28;20104;-88
2022/06/18 03:57:18;;;;;;;7.20;6.13;;;;;;;11.83;100.00;93724.00;2107461;28;20028;-86
2022/06/18 03:58:20;;;;;;;8.13;6.30;;;;;;;11.87;100.00;93715.94;2098711;28;20485;-88
2022/06/18 03:59:22;;;;;;;7.70;6.05;;;;;;;11.88;100.00;93725.47;2090378;28;20093;-88
2022/06/18 04:00:24;;;;;;;6.60;6.00;;;;;;;11.90;100.00;93725.84;2098818;28;20020;-88
2022/06/18 04:01:31;;;;;;;9.73;6.47;;;;;;;11.90;100.00;93720.47;2106774;28;20020;-86
2022/06/18 04:02:32;;;;;;;8.15;6.60;;;;;;;11.89;100.00;93714.34;2106712;28;20488;-88
2022/06/18 04:03:33;;;;;;;6.47;5.88;;;;;;;11.89;100.00;93713.59;2098625;28;20024;-86
2022/06/18 04:04:35;;;;;;;7.10;5.93;;;;;;;11.92;100.00;93718.88;2090237;28;20028;-91
2022/06/18 04:05:39;;;;;;;6.20;5.60;;;;;;;11.90;100.00;93718.56;2090003;28;20056;-88
2022/06/18 04:06:44;;;;;;;6.93;6.22;;;;;;;11.93;100.00;93714.28;2110229;28;20061;-90
2022/06/18 04:07:45;;;;;;;8.60;6.30;;;;;;;11.96;100.00;93716.91;2106574;28;20059;-89
2022/06/18 04:08:46;;;;;;;9.32;6.30;;;;;;;11.96;100.00;93716.91;2098466;28;20077;-88
2022/06/18 04:09:49;;;;;;;6.40;5.90;;;;;;;12.03;100.00;93713.34;2106850;28;20024;-88
2022/06/18 04:10:50;;;;;;;6.85;5.95;;;;;;;12.02;100.00;93717.94;2098393;28;20052;-89
2022/06/18 04:11:51;;;;;;;9.10;5.88;;;;;;;12.01;100.00;93724.47;2098370;28;20020;-86
2022/06/18 04:12:53;;;;;;;8.65;6.10;;;;;;;12.06;100.00;93715.19;2106708;28;20016;-85
2022/06/18 04:13:55;;;;;;;6.65;6.05;;;;;;;12.06;100.00;93721.31;2106706;28;20044;-87
2022/06/18 04:14:57;;;;;;;8.10;6.05;;;;;;;12.06;100.00;93717.88;2106845;28;20023;-85
2022/06/18 04:15:58;;;;;;;6.65;6.05;;;;;;;12.08;100.00;93710.94;2106538;28;20020;-85
2022/06/18 04:16:59;;;;;;;6.28;5.72;;;;;;;12.13;100.00;93714.31;2098315;28;20028;-87
2022/06/18 04:18:02;;;;;;;7.00;6.30;;;;;;;12.18;100.00;93711.16;2098059;28;20025;-86
2022/06/18 04:19:03;;;;;;;6.85;6.15;;;;;;;12.14;100.00;93716.59;2098444;28;20024;-87
2022/06/18 04:20:05;;;;;;;9.23;6.90;;;;;;;12.17;100.00;93715.03;2098099;28;20473;-86
2022/06/18 04:21:06;;;;;;;5.97;5.38;;;;;;;12.19;100.00;93710.75;2081933;28;20025;-89
2022/06/18 04:22:07;;;;;;;6.95;6.22;;;;;;;12.22;100.00;93706.50;2086983;28;20080;-88
2022/06/18 04:23:10;;;;;;;7.03;5.82;;;;;;;12.25;100.00;93709.13;2106734;28;20507;-90
2022/06/18 04:24:12;;;;;;;6.20;5.68;;;;;;;12.32;100.00;93713.59;2098596;28;20024;-86
2022/06/18 04:25:13;;;;;;;8.07;6.30;;;;;;;12.34;100.00;93711.25;2090255;28;20025;-86
2022/06/18 04:26:14;;;;;;;6.90;6.15;;;;;;;12.38;100.00;93711.94;2089909;28;20111;-86
2022/06/18 04:27:24;;;;;;;6.80;6.05;;;;;;;12.41;100.00;93705.75;2098333;28;20017;-88
2022/06/18 04:28:25;;;;;;;8.18;6.20;;;;;;;12.40;100.00;93708.84;2107710;28;20103;-90
2022/06/18 04:29:28;;;;;;;7.03;6.05;;;;;;;12.47;100.00;93703.34;2106759;28;20028;-88
2022/06/18 04:30:32;;;;;;;6.25;5.72;;;;;;;12.47;100.00;93703.34;2098342;28;20063;-88
2022/06/18 04:31:33;;;;;;;7.57;6.22;;;;;;;12.48;100.00;93702.94;2090918;28;20029;-87
2022/06/18 04:32:36;;;;;;;6.60;5.95;;;;;;;12.53;100.00;93702.44;2098162;28;20477;-88
2022/06/18 04:33:37;;;;;;;6.57;5.80;;;;;;;12.58;100.00;93703.88;2098824;28;20032;-88
2022/06/18 04:34:38;;;;;;;6.38;5.78;;;;;;;12.59;100.00;93711.50;2098169;28;20016;-86
2022/06/18 04:35:39;;;;;;;6.55;5.88;;;;;;;12.61;100.00;93697.72;2097966;28;20025;-88
2022/06/18 04:36:42;;;;;;;8.13;6.43;;;;;;;12.60;100.00;93705.00;2088899;28;20047;-88
2022/06/18 04:37:44;;;;;;;6.43;5.93;;;;;;;12.64;100.00;93707.59;2090301;28;20032;-86
2022/06/18 04:38:45;;;;;;;8.60;6.32;;;;;;;12.68;100.00;93702.16;2090022;28;20040;-87
2022/06/18 04:39:47;;;;;;;8.98;6.63;;;;;;;12.72;100.00;93702.84;2098195;28;20043;-87
2022/06/18 04:40:48;;;;;;;6.82;6.15;;;;;;;12.77;100.00;93699.66;2098222;28;20025;-87
2022/06/18 04:41:50;;;;;;;6.90;6.20;;;;;;;12.76;100.00;93706.97;2090028;28;20032;-85
2022/06/18 04:42:50;;;;;;;7.13;6.20;;;;;;;12.78;100.00;93704.63;2098061;28;20016;-88
2022/06/18 04:43:51;;;;;;;8.55;6.90;;;;;;;12.83;100.00;93698.78;2097918;28;20028;-87
2022/06/18 04:44:53;;;;;;;8.02;7.32;;;;;;;12.83;100.00;93701.47;2098008;28;20020;-86
2022/06/18 04:45:56;;;;;;;7.22;6.63;;;;;;;12.88;100.00;93696.78;2098004;28;20020;-87
2022/06/18 04:46:57;;;;;;;7.63;6.90;;;;;;;12.93;100.00;93702.41;2106711;28;20066;-88
2022/06/18 04:48:00;;;;;;;7.72;6.97;;;;;;;12.95;100.00;93694.72;2098138;28;20058;-87
2022/06/18 04:49:02;;;;;;;7.90;6.40;;;;;;;12.94;100.00;93703.91;2090468;28;20033;-89
2022/06/18 04:50:04;;;;;;;8.18;6.90;;;;;;;13.00;100.00;93696.91;2089894;28;20108;-86
2022/06/18 04:51:05;;;;;;;8.15;6.80;;;;;;;13.01;100.00;93694.97;2098156;28;20024;-85
2022/06/18 04:52:06;;;;;;;7.50;6.90;;;;;;;13.03;100.00;93688.00;2097904;28;20398;-87
2022/06/18 04:53:10;;;;;;;7.63;6.72;;;;;;;13.05;100.00;93692.97;2089626;28;20653;-86
2022/06/18 04:54:11;;;;;;;7.70;6.82;;;;;;;13.09;100.00;93697.06;2089993;28;20405;-85
2022/06/18 04:55:12;;;;;;;8.73;6.85;;;;;;;13.11;100.00;93685.91;2085308;28;20029;-87
2022/06/18 04:56:13;;;;;;;7.45;6.70;;;;;;;13.15;100.00;93693.88;2089895;28;20535;-88
2022/06/18 04:57:14;;;;;;;8.60;7.05;;;;;;;13.15;100.00;93694.66;2090013;28;20556;-88
2022/06/18 04:58:16;;;;;;;8.73;6.60;;;;;;;13.20;100.00;93691.47;2089741;28;20111;-87
2022/06/18 04:59:17;;;;;;;7.55;6.85;;;;;;;13.26;100.00;93695.19;2089996;28;20052;-87
2022/06/18 05:00:19;;;;;;;7.00;6.30;;;;;;;13.28;100.00;93694.78;2089818;28;20025;-89
2022/06/18 05:01:26;;;;;;;6.75;6.15;;;;;;;13.29;100.00;93694.34;2089806;28;20048;-84
2022/06/18 05:02:31;;;;;;;8.30;6.85;;;;;;;13.31;100.00;93694.69;2091425;28;20058;-89
2022/06/18 05:03:33;;;;;;;7.28;6.50;;;;;;;13.37;100.00;93694.94;2099014;28;20025;-84
2022/06/18 05:04:34;;;;;;;11.05;6.38;;;;;;;13.35;100.00;93695.38;2106234;28;20016;-85
2022/06/18 05:05:36;;;;;;;9.52;7.10;;;;;;;13.42;100.00;93691.00;2097960;28;20070;-87
2022/06/18 05:06:37;;;;;;;13.27;6.90;;;;;;;13.48;100.00;93695.47;2089779;28;20447;-88
2022/06/18 05:07:38;;;;;;;9.82;6.50;;;;;;;13.49;100.00;93688.91;2081431;28;20029;-88
2022/06/18 05:08:41;;;;;;;9.63;6.78;;;;;;;13.53;100.00;93688.84;2081555;28;20585;-86